Reklama

Seznam meteostanic a jejich METAR

Vyhledat místa podle abecedy:
A B C D E F G H I J K L M N O P Q R S T U V W X Y Z

Filtrovat:

ID stanice:
a/nebo
Název místa (fulltext):
 
Místo (ID)Naposledy načteno 
Náměšť nad Oslavou (Namest n/O) 31.05.2020 04:00 UTC Zobrazit data
Místo: Náměšť nad Oslavou
Teplota: 8 °C (pocitová: 2 °C)
Vítr: 5 m/s z(e) 290°
Počasí: zataženo
Dohlednost: 30 km
Zákl. oblačnosti: 8/8 2400 m
Vlhkost: 76%
N'Djamena (FTTJ) 31.05.2020 02:00 UTC Zobrazit METAR
FTTJ 310200Z 17005KT 8000 NSC 32/19 Q1008 NOSIG
Nairobi (HKJK) 31.05.2020 04:00 UTC Zobrazit METAR
HKJK 310400Z 24004KT CAVOK 10/10 Q1025 NOSIG
Nantes/ Atlantique (LFRS) 31.05.2020 04:00 UTC Zobrazit METAR
LFRS 310400Z AUTO 05007KT 020V080 CAVOK 15/07 Q1014 NOSIG
Nassau (MYNN) 31.05.2020 04:00 UTC Zobrazit METAR
MYNN 310400Z 10004KT 9999 FEW030 BKN200 27/22 A3004
Nauru (ANAU) Zatím nenačteno  
Nausori (NFNA) 30.05.2020 21:00 UTC Zobrazit METAR
NFNA 302100Z 08005KT 030V100 9999 BKN016 BKN045 26/25 Q1017
New York (KNYC) 31.05.2020 03:51 UTC Zobrazit METAR
KNYC 310351Z AUTO 10SM CLR 21/10 A2995 RMK AO2 SLP134 T02110100 $
Newcastle (EGNT) 31.05.2020 03:50 UTC Zobrazit METAR
EGNT 310350Z AUTO 00000KT 4200 HZ SCT005/// 07/06 Q1027
Niamey (DRRN) 31.05.2020 04:00 UTC Zobrazit METAR
DRRN 310400Z 22009KT CAVOK 32/20 Q1010 BECMG 14025G40KT 0800 BLDU
Nice/ Cote D'Azur (LFMN) 31.05.2020 04:00 UTC Zobrazit METAR
LFMN 310400Z AUTO 34006KT 9999 FEW094 OVC110 16/11 Q1015 NOSIG
Niue Island (NIUE) 29.05.2020 21:00 UTC Zobrazit METAR
NIUE 292100Z 05006KT 010V080 9999 SCT020 28/25 Q1018
Nizhny Novgorod (UWGG) 13.10.2017 15:00 UTC Zobrazit METAR
UWGG 131500Z 9000 NSC 10/07 Q1006 R18R/290050 NOSIG RMK QFE747
North Caicos I. (MBNC) Zatím nenačteno  
Nouakchott (GQNN) 23.06.2016 11:00 UTC Zobrazit METAR
GQNN 231100Z 23009KT 180V250 7000 BKN010 25/18 Q1013 NOSIG
Noumea (NWWM) Zatím nenačteno  
Nuku'alofa (NFTF) 31.05.2020 04:00 UTC Zobrazit METAR
NFTF 310400Z 08005KT 9999 FEW016 BKN120 27/25 Q1018
Reklama

Lunární kalendář

  • 05.06.Fáze měsíce uplnek
  • 13.06.Fáze měsíce posl_ctvrt
  • 21.06.Fáze měsíce nov
  • 28.06.Fáze měsíce prv_ctvrt



Reklama
Meteodomečky

Počasí na Váš email

Emaily jsou bez reklamy a bez spamu



Odhlásit newsletter

Reklama


Další české internetové stránky (nejen) o počasí najdete v katalogu TOPlist - weby o počasí nebo vyhledejte na internetu, co jste tu na 🌞 Slunečnu ⛅ zatím nenašli:

Reklama